sensor_id;sensor_type;location;lat;lon;timestamp;temperature;humidity
52709;DHT22;38606;52.986;6.980;2024-01-30T00:01:52;5.40;99.90
52709;DHT22;38606;52.986;6.980;2024-01-30T00:04:17;5.20;99.90
52709;DHT22;38606;52.986;6.980;2024-01-30T00:06:46;5.50;99.90
52709;DHT22;38606;52.986;6.980;2024-01-30T00:09:12;6.40;99.90
52709;DHT22;38606;52.986;6.980;2024-01-30T00:11:38;5.30;99.90
52709;DHT22;38606;52.986;6.980;2024-01-30T00:14:04;5.30;99.90
52709;DHT22;38606;52.986;6.980;2024-01-30T00:16:30;5.60;99.90
52709;DHT22;38606;52.986;6.980;2024-01-30T00:18:56;5.70;99.90
52709;DHT22;38606;52.986;6.980;2024-01-30T00:21:23;6.40;99.90
52709;DHT22;38606;52.986;6.980;2024-01-30T00:23:48;5.60;99.90
52709;DHT22;38606;52.986;6.980;2024-01-30T00:26:14;5.20;99.90
52709;DHT22;38606;52.986;6.980;2024-01-30T00:28:43;6.10;99.90
52709;DHT22;38606;52.986;6.980;2024-01-30T00:31:09;5.10;99.90
52709;DHT22;38606;52.986;6.980;2024-01-30T00:33:41;5.70;99.90
52709;DHT22;38606;52.986;6.980;2024-01-30T00:36:08;5.10;99.90
52709;DHT22;38606;52.986;6.980;2024-01-30T00:38:34;5.20;99.90
52709;DHT22;38606;52.986;6.980;2024-01-30T00:40:59;5.20;99.90
52709;DHT22;38606;52.986;6.980;2024-01-30T00:43:25;6.00;99.90
52709;DHT22;38606;52.986;6.980;2024-01-30T00:45:51;5.30;99.90
52709;DHT22;38606;52.986;6.980;2024-01-30T00:48:20;5.50;99.90
52709;DHT22;38606;52.986;6.980;2024-01-30T00:50:46;5.30;99.90
52709;DHT22;38606;52.986;6.980;2024-01-30T00:53:12;6.40;99.90
52709;DHT22;38606;52.986;6.980;2024-01-30T00:55:38;6.60;99.90
52709;DHT22;38606;52.986;6.980;2024-01-30T00:58:04;5.50;99.90
52709;DHT22;38606;52.986;6.980;2024-01-30T01:00:30;5.50;99.90
52709;DHT22;38606;52.986;6.980;2024-01-30T01:02:58;6.40;99.90
52709;DHT22;38606;52.986;6.980;2024-01-30T01:05:23;5.40;99.90
52709;DHT22;38606;52.986;6.980;2024-01-30T01:07:49;6.10;99.90
52709;DHT22;38606;52.986;6.980;2024-01-30T01:10:18;5.90;99.90
52709;DHT22;38606;52.986;6.980;2024-01-30T01:12:45;7.20;99.90
52709;DHT22;38606;52.986;6.980;2024-01-30T01:15:11;6.30;99.90
52709;DHT22;38606;52.986;6.980;2024-01-30T01:17:40;6.60;99.90
52709;DHT22;38606;52.986;6.980;2024-01-30T01:20:06;6.80;99.90
52709;DHT22;38606;52.986;6.980;2024-01-30T01:22:33;5.20;99.90
52709;DHT22;38606;52.986;6.980;2024-01-30T01:25:00;5.30;99.90
52709;DHT22;38606;52.986;6.980;2024-01-30T01:27:25;5.30;99.90
52709;DHT22;38606;52.986;6.980;2024-01-30T01:29:51;5.30;99.90
52709;DHT22;38606;52.986;6.980;2024-01-30T01:32:18;6.20;99.90
52709;DHT22;38606;52.986;6.980;2024-01-30T01:34:43;5.40;99.90
52709;DHT22;38606;52.986;6.980;2024-01-30T01:37:09;5.70;99.90
52709;DHT22;38606;52.986;6.980;2024-01-30T01:39:35;5.40;99.90
52709;DHT22;38606;52.986;6.980;2024-01-30T01:42:01;6.20;99.90
52709;DHT22;38606;52.986;6.980;2024-01-30T01:44:27;5.40;99.90
52709;DHT22;38606;52.986;6.980;2024-01-30T01:46:54;5.30;99.90
52709;DHT22;38606;52.986;6.980;2024-01-30T01:49:22;5.20;99.90
52709;DHT22;38606;52.986;6.980;2024-01-30T01:51:48;5.70;99.90
52709;DHT22;38606;52.986;6.980;2024-01-30T01:54:15;6.40;99.90
52709;DHT22;38606;52.986;6.980;2024-01-30T01:56:42;5.20;99.90
52709;DHT22;38606;52.986;6.980;2024-01-30T01:59:09;5.30;99.90
52709;DHT22;38606;52.986;6.980;2024-01-30T02:01:38;6.30;99.90
52709;DHT22;38606;52.986;6.980;2024-01-30T02:04:04;5.30;99.90
52709;DHT22;38606;52.986;6.980;2024-01-30T02:06:30;5.40;99.90
52709;DHT22;38606;52.986;6.980;2024-01-30T02:08:56;6.30;99.90
52709;DHT22;38606;52.986;6.980;2024-01-30T02:11:24;5.50;99.90
52709;DHT22;38606;52.986;6.980;2024-01-30T02:13:50;4.10;99.90
52709;DHT22;38606;52.986;6.980;2024-01-30T02:16:16;5.50;99.90
52709;DHT22;38606;52.986;6.980;2024-01-30T02:18:45;6.00;99.90
52709;DHT22;38606;52.986;6.980;2024-01-30T02:21:16;6.30;99.90
52709;DHT22;38606;52.986;6.980;2024-01-30T02:23:44;5.40;99.90
52709;DHT22;38606;52.986;6.980;2024-01-30T02:26:11;6.10;99.90
52709;DHT22;38606;52.986;6.980;2024-01-30T02:28:37;5.50;99.90
52709;DHT22;38606;52.986;6.980;2024-01-30T02:31:04;5.40;99.90
52709;DHT22;38606;52.986;6.980;2024-01-30T02:33:30;6.50;99.90
52709;DHT22;38606;52.986;6.980;2024-01-30T02:35:55;5.60;99.90
52709;DHT22;38606;52.986;6.980;2024-01-30T02:38:21;5.60;99.90
52709;DHT22;38606;52.986;6.980;2024-01-30T02:40:47;5.70;99.90
52709;DHT22;38606;52.986;6.980;2024-01-30T02:43:13;5.80;99.90
52709;DHT22;38606;52.986;6.980;2024-01-30T02:45:38;6.70;99.90
52709;DHT22;38606;52.986;6.980;2024-01-30T02:48:04;5.60;99.90
52709;DHT22;38606;52.986;6.980;2024-01-30T02:50:30;5.60;99.90
52709;DHT22;38606;52.986;6.980;2024-01-30T02:52:56;6.50;99.90
52709;DHT22;38606;52.986;6.980;2024-01-30T02:55:21;5.80;99.90
52709;DHT22;38606;52.986;6.980;2024-01-30T02:57:47;6.50;99.90
52709;DHT22;38606;52.986;6.980;2024-01-30T03:00:13;5.80;99.90
52709;DHT22;38606;52.986;6.980;2024-01-30T03:02:39;5.60;99.90
52709;DHT22;38606;52.986;6.980;2024-01-30T03:05:06;5.80;99.90
52709;DHT22;38606;52.986;6.980;2024-01-30T03:07:31;5.80;99.90
52709;DHT22;38606;52.986;6.980;2024-01-30T03:09:58;5.80;99.90
52709;DHT22;38606;52.986;6.980;2024-01-30T03:12:24;6.50;99.90
52709;DHT22;38606;52.986;6.980;2024-01-30T03:14:49;6.10;99.90
52709;DHT22;38606;52.986;6.980;2024-01-30T03:17:15;6.30;99.90
52709;DHT22;38606;52.986;6.980;2024-01-30T03:19:41;4.70;99.90
52709;DHT22;38606;52.986;6.980;2024-01-30T03:22:07;5.90;99.90
52709;DHT22;38606;52.986;6.980;2024-01-30T03:24:32;5.70;99.90
52709;DHT22;38606;52.986;6.980;2024-01-30T03:26:58;6.30;99.90
52709;DHT22;38606;52.986;6.980;2024-01-30T03:29:24;5.60;99.90
52709;DHT22;38606;52.986;6.980;2024-01-30T03:31:49;6.70;99.90
52709;DHT22;38606;52.986;6.980;2024-01-30T03:34:15;5.90;99.90
52709;DHT22;38606;52.986;6.980;2024-01-30T03:36:41;5.70;99.90
52709;DHT22;38606;52.986;6.980;2024-01-30T03:39:07;5.70;99.90
52709;DHT22;38606;52.986;6.980;2024-01-30T03:41:32;5.90;99.90
52709;DHT22;38606;52.986;6.980;2024-01-30T03:43:58;6.00;99.90
52709;DHT22;38606;52.986;6.980;2024-01-30T03:46:24;4.40;99.90
52709;DHT22;38606;52.986;6.980;2024-01-30T03:48:50;7.00;99.90
52709;DHT22;38606;52.986;6.980;2024-01-30T03:51:16;5.80;99.90
52709;DHT22;38606;52.986;6.980;2024-01-30T03:53:42;6.10;99.90
52709;DHT22;38606;52.986;6.980;2024-01-30T03:56:09;6.40;99.90
52709;DHT22;38606;52.986;6.980;2024-01-30T03:58:34;6.30;99.90
52709;DHT22;38606;52.986;6.980;2024-01-30T04:01:00;6.90;99.90
52709;DHT22;38606;52.986;6.980;2024-01-30T04:03:26;6.20;99.90
52709;DHT22;38606;52.986;6.980;2024-01-30T04:05:52;5.90;99.90
52709;DHT22;38606;52.986;6.980;2024-01-30T04:08:18;5.80;99.90
52709;DHT22;38606;52.986;6.980;2024-01-30T04:10:44;6.10;99.90
52709;DHT22;38606;52.986;6.980;2024-01-30T04:13:10;6.00;99.90
52709;DHT22;38606;52.986;6.980;2024-01-30T04:15:36;6.70;99.90
52709;DHT22;38606;52.986;6.980;2024-01-30T04:18:02;5.80;99.90
52709;DHT22;38606;52.986;6.980;2024-01-30T04:20:27;6.10;99.90
52709;DHT22;38606;52.986;6.980;2024-01-30T04:22:53;6.10;99.90
52709;DHT22;38606;52.986;6.980;2024-01-30T04:25:19;6.60;99.90
52709;DHT22;38606;52.986;6.980;2024-01-30T04:27:45;6.70;99.90
52709;DHT22;38606;52.986;6.980;2024-01-30T04:30:11;5.80;99.90
52709;DHT22;38606;52.986;6.980;2024-01-30T04:32:37;6.00;99.90
52709;DHT22;38606;52.986;6.980;2024-01-30T04:35:03;6.40;99.90
52709;DHT22;38606;52.986;6.980;2024-01-30T04:37:29;6.00;99.90
52709;DHT22;38606;52.986;6.980;2024-01-30T04:39:55;6.90;99.90
52709;DHT22;38606;52.986;6.980;2024-01-30T04:42:20;5.90;99.90
52709;DHT22;38606;52.986;6.980;2024-01-30T04:44:46;7.10;99.90
52709;DHT22;38606;52.986;6.980;2024-01-30T04:47:12;6.00;99.90
52709;DHT22;38606;52.986;6.980;2024-01-30T04:49:41;5.90;99.90
52709;DHT22;38606;52.986;6.980;2024-01-30T04:52:07;6.60;99.90
52709;DHT22;38606;52.986;6.980;2024-01-30T04:54:33;6.10;99.90
52709;DHT22;38606;52.986;6.980;2024-01-30T04:57:00;6.20;99.90
52709;DHT22;38606;52.986;6.980;2024-01-30T04:59:26;6.20;99.90
52709;DHT22;38606;52.986;6.980;2024-01-30T05:01:51;7.00;99.90
52709;DHT22;38606;52.986;6.980;2024-01-30T05:04:17;6.20;99.90
52709;DHT22;38606;52.986;6.980;2024-01-30T05:06:43;6.30;99.90
52709;DHT22;38606;52.986;6.980;2024-01-30T05:09:09;6.10;99.90
52709;DHT22;38606;52.986;6.980;2024-01-30T05:11:38;6.90;99.90
52709;DHT22;38606;52.986;6.980;2024-01-30T05:14:05;6.40;99.90
52709;DHT22;38606;52.986;6.980;2024-01-30T05:16:31;6.40;99.90
52709;DHT22;38606;52.986;6.980;2024-01-30T05:18:57;6.50;99.90
52709;DHT22;38606;52.986;6.980;2024-01-30T05:21:23;6.30;99.90
52709;DHT22;38606;52.986;6.980;2024-01-30T05:23:49;6.60;99.90
52709;DHT22;38606;52.986;6.980;2024-01-30T05:26:15;6.40;99.90
52709;DHT22;38606;52.986;6.980;2024-01-30T05:28:40;6.50;99.90
52709;DHT22;38606;52.986;6.980;2024-01-30T05:31:06;6.50;99.90
52709;DHT22;38606;52.986;6.980;2024-01-30T05:33:32;6.30;99.90
52709;DHT22;38606;52.986;6.980;2024-01-30T05:35:58;6.30;99.90
52709;DHT22;38606;52.986;6.980;2024-01-30T05:38:23;6.30;99.90
52709;DHT22;38606;52.986;6.980;2024-01-30T05:40:49;6.30;99.90
52709;DHT22;38606;52.986;6.980;2024-01-30T05:43:15;7.70;99.90
52709;DHT22;38606;52.986;6.980;2024-01-30T05:45:40;6.60;99.90
52709;DHT22;38606;52.986;6.980;2024-01-30T05:48:06;7.70;99.90
52709;DHT22;38606;52.986;6.980;2024-01-30T05:50:32;6.40;99.90
52709;DHT22;38606;52.986;6.980;2024-01-30T05:52:58;6.30;99.90
52709;DHT22;38606;52.986;6.980;2024-01-30T05:55:23;6.60;99.90
52709;DHT22;38606;52.986;6.980;2024-01-30T05:57:49;7.20;99.90
52709;DHT22;38606;52.986;6.980;2024-01-30T06:00:16;6.30;99.90
52709;DHT22;38606;52.986;6.980;2024-01-30T06:02:42;6.60;99.90
52709;DHT22;38606;52.986;6.980;2024-01-30T06:05:08;6.50;99.90
52709;DHT22;38606;52.986;6.980;2024-01-30T06:07:34;6.40;99.90
52709;DHT22;38606;52.986;6.980;2024-01-30T06:09:59;7.30;99.90
52709;DHT22;38606;52.986;6.980;2024-01-30T06:12:27;7.80;99.90
52709;DHT22;38606;52.986;6.980;2024-01-30T06:14:53;6.80;99.90
52709;DHT22;38606;52.986;6.980;2024-01-30T06:17:22;6.80;99.90
52709;DHT22;38606;52.986;6.980;2024-01-30T06:19:48;7.60;99.90
52709;DHT22;38606;52.986;6.980;2024-01-30T06:22:13;6.90;99.90
52709;DHT22;38606;52.986;6.980;2024-01-30T06:24:39;7.90;99.90
52709;DHT22;38606;52.986;6.980;2024-01-30T06:27:05;6.80;99.90
52709;DHT22;38606;52.986;6.980;2024-01-30T06:29:30;7.60;99.90
52709;DHT22;38606;52.986;6.980;2024-01-30T06:31:56;6.70;99.90
52709;DHT22;38606;52.986;6.980;2024-01-30T06:34:22;6.90;99.90
52709;DHT22;38606;52.986;6.980;2024-01-30T06:36:48;7.00;99.90
52709;DHT22;38606;52.986;6.980;2024-01-30T06:39:14;7.10;99.90
52709;DHT22;38606;52.986;6.980;2024-01-30T06:41:39;6.90;99.90
52709;DHT22;38606;52.986;6.980;2024-01-30T06:44:05;6.80;99.90
52709;DHT22;38606;52.986;6.980;2024-01-30T06:46:33;7.80;99.90
52709;DHT22;38606;52.986;6.980;2024-01-30T06:48:59;7.00;99.90
52709;DHT22;38606;52.986;6.980;2024-01-30T06:51:25;7.00;99.90
52709;DHT22;38606;52.986;6.980;2024-01-30T06:53:51;7.20;99.90
52709;DHT22;38606;52.986;6.980;2024-01-30T06:56:16;7.20;99.90
52709;DHT22;38606;52.986;6.980;2024-01-30T06:58:47;6.80;99.90
52709;DHT22;38606;52.986;6.980;2024-01-30T07:01:13;7.20;99.90
52709;DHT22;38606;52.986;6.980;2024-01-30T07:03:39;7.00;99.90
52709;DHT22;38606;52.986;6.980;2024-01-30T07:06:05;6.00;99.90
52709;DHT22;38606;52.986;6.980;2024-01-30T07:08:31;7.00;99.90
52709;DHT22;38606;52.986;6.980;2024-01-30T07:10:57;7.00;99.90
52709;DHT22;38606;52.986;6.980;2024-01-30T07:13:22;7.00;99.90
52709;DHT22;38606;52.986;6.980;2024-01-30T07:15:48;7.10;99.90
52709;DHT22;38606;52.986;6.980;2024-01-30T07:18:14;7.00;99.90
52709;DHT22;38606;52.986;6.980;2024-01-30T07:20:40;7.10;99.90
52709;DHT22;38606;52.986;6.980;2024-01-30T07:23:15;7.10;99.90
52709;DHT22;38606;52.986;6.980;2024-01-30T07:25:43;7.10;99.90
52709;DHT22;38606;52.986;6.980;2024-01-30T07:28:09;7.10;99.90
52709;DHT22;38606;52.986;6.980;2024-01-30T07:30:36;7.30;99.90
52709;DHT22;38606;52.986;6.980;2024-01-30T07:33:02;7.40;99.90
52709;DHT22;38606;52.986;6.980;2024-01-30T07:35:28;7.60;99.90
52709;DHT22;38606;52.986;6.980;2024-01-30T07:37:54;7.70;99.90
52709;DHT22;38606;52.986;6.980;2024-01-30T07:40:19;9.10;99.90
52709;DHT22;38606;52.986;6.980;2024-01-30T07:42:45;7.70;99.90
52709;DHT22;38606;52.986;6.980;2024-01-30T07:45:11;7.20;99.90
52709;DHT22;38606;52.986;6.980;2024-01-30T07:47:36;7.10;99.90
52709;DHT22;38606;52.986;6.980;2024-01-30T07:50:02;7.30;99.90
52709;DHT22;38606;52.986;6.980;2024-01-30T07:52:29;7.30;99.90
52709;DHT22;38606;52.986;6.980;2024-01-30T07:54:54;7.40;99.90
52709;DHT22;38606;52.986;6.980;2024-01-30T07:57:20;7.40;99.90
52709;DHT22;38606;52.986;6.980;2024-01-30T07:59:46;7.40;99.90
52709;DHT22;38606;52.986;6.980;2024-01-30T08:02:12;8.40;99.90
52709;DHT22;38606;52.986;6.980;2024-01-30T08:04:39;7.60;99.90
52709;DHT22;38606;52.986;6.980;2024-01-30T08:07:04;8.20;99.90
52709;DHT22;38606;52.986;6.980;2024-01-30T08:09:30;7.20;99.90
52709;DHT22;38606;52.986;6.980;2024-01-30T08:11:56;7.50;99.90
52709;DHT22;38606;52.986;6.980;2024-01-30T08:14:21;7.60;99.90
52709;DHT22;38606;52.986;6.980;2024-01-30T08:16:47;7.60;99.90
52709;DHT22;38606;52.986;6.980;2024-01-30T08:19:14;7.40;99.90
52709;DHT22;38606;52.986;6.980;2024-01-30T08:21:40;8.40;99.90
52709;DHT22;38606;52.986;6.980;2024-01-30T08:24:06;7.60;99.90
52709;DHT22;38606;52.986;6.980;2024-01-30T08:26:33;7.60;99.90
52709;DHT22;38606;52.986;6.980;2024-01-30T08:28:59;7.90;99.90
52709;DHT22;38606;52.986;6.980;2024-01-30T08:31:24;8.30;99.90
52709;DHT22;38606;52.986;6.980;2024-01-30T08:33:50;8.10;99.90
52709;DHT22;38606;52.986;6.980;2024-01-30T08:36:17;7.70;99.90
52709;DHT22;38606;52.986;6.980;2024-01-30T08:38:43;7.70;99.90
52709;DHT22;38606;52.986;6.980;2024-01-30T08:41:09;7.80;99.90
52709;DHT22;38606;52.986;6.980;2024-01-30T08:43:34;7.80;99.90
52709;DHT22;38606;52.986;6.980;2024-01-30T08:46:01;7.90;99.90
52709;DHT22;38606;52.986;6.980;2024-01-30T08:48:27;7.70;99.90
52709;DHT22;38606;52.986;6.980;2024-01-30T08:50:53;8.00;99.90
52709;DHT22;38606;52.986;6.980;2024-01-30T08:53:19;7.90;99.90
52709;DHT22;38606;52.986;6.980;2024-01-30T08:55:45;7.90;99.90
52709;DHT22;38606;52.986;6.980;2024-01-30T08:58:11;7.90;99.90
52709;DHT22;38606;52.986;6.980;2024-01-30T09:00:37;8.20;99.90
52709;DHT22;38606;52.986;6.980;2024-01-30T09:03:06;8.10;99.90
52709;DHT22;38606;52.986;6.980;2024-01-30T09:05:31;8.10;99.90
52709;DHT22;38606;52.986;6.980;2024-01-30T09:07:57;8.10;99.90
52709;DHT22;38606;52.986;6.980;2024-01-30T09:10:23;8.90;99.90
52709;DHT22;38606;52.986;6.980;2024-01-30T09:12:49;8.30;99.90
52709;DHT22;38606;52.986;6.980;2024-01-30T09:15:14;8.40;99.90
52709;DHT22;38606;52.986;6.980;2024-01-30T09:17:40;9.50;99.90
52709;DHT22;38606;52.986;6.980;2024-01-30T09:20:06;8.40;99.90
52709;DHT22;38606;52.986;6.980;2024-01-30T09:22:32;8.50;99.90
52709;DHT22;38606;52.986;6.980;2024-01-30T09:24:58;8.60;99.90
52709;DHT22;38606;52.986;6.980;2024-01-30T09:27:24;8.70;99.90
52709;DHT22;38606;52.986;6.980;2024-01-30T09:29:49;8.60;99.90
52709;DHT22;38606;52.986;6.980;2024-01-30T09:32:15;8.80;99.90
52709;DHT22;38606;52.986;6.980;2024-01-30T09:34:41;8.60;99.90
52709;DHT22;38606;52.986;6.980;2024-01-30T09:37:07;8.80;99.90
52709;DHT22;38606;52.986;6.980;2024-01-30T09:39:33;8.90;99.90
52709;DHT22;38606;52.986;6.980;2024-01-30T09:42:11;8.70;99.90
52709;DHT22;38606;52.986;6.980;2024-01-30T09:44:38;8.80;99.90
52709;DHT22;38606;52.986;6.980;2024-01-30T09:47:04;9.00;99.90
52709;DHT22;38606;52.986;6.980;2024-01-30T09:49:32;8.70;99.90
52709;DHT22;38606;52.986;6.980;2024-01-30T09:51:58;9.00;99.90
52709;DHT22;38606;52.986;6.980;2024-01-30T09:54:24;9.10;99.90
52709;DHT22;38606;52.986;6.980;2024-01-30T09:56:50;9.10;99.90
52709;DHT22;38606;52.986;6.980;2024-01-30T09:59:16;9.10;99.90
52709;DHT22;38606;52.986;6.980;2024-01-30T10:01:42;9.20;99.90
52709;DHT22;38606;52.986;6.980;2024-01-30T10:04:09;9.10;99.90
52709;DHT22;38606;52.986;6.980;2024-01-30T10:06:34;9.50;99.90
52709;DHT22;38606;52.986;6.980;2024-01-30T10:09:00;9.40;99.90
52709;DHT22;38606;52.986;6.980;2024-01-30T10:11:26;9.30;99.90
52709;DHT22;38606;52.986;6.980;2024-01-30T10:13:52;9.40;99.90
52709;DHT22;38606;52.986;6.980;2024-01-30T10:16:18;9.30;99.90
52709;DHT22;38606;52.986;6.980;2024-01-30T10:18:44;9.40;99.90
52709;DHT22;38606;52.986;6.980;2024-01-30T10:21:09;9.40;99.90
52709;DHT22;38606;52.986;6.980;2024-01-30T10:23:36;9.80;99.90
52709;DHT22;38606;52.986;6.980;2024-01-30T10:26:07;9.60;99.90
52709;DHT22;38606;52.986;6.980;2024-01-30T10:28:33;9.70;99.90
52709;DHT22;38606;52.986;6.980;2024-01-30T10:31:00;9.80;99.90
52709;DHT22;38606;52.986;6.980;2024-01-30T10:33:29;9.70;99.90
52709;DHT22;38606;52.986;6.980;2024-01-30T10:36:00;9.60;99.90
52709;DHT22;38606;52.986;6.980;2024-01-30T10:38:29;9.90;99.90
52709;DHT22;38606;52.986;6.980;2024-01-30T10:41:00;9.90;99.90
52709;DHT22;38606;52.986;6.980;2024-01-30T10:43:35;9.90;99.90
52709;DHT22;38606;52.986;6.980;2024-01-30T10:46:21;9.90;99.90
52709;DHT22;38606;52.986;6.980;2024-01-30T10:48:57;10.10;99.90
52709;DHT22;38606;52.986;6.980;2024-01-30T10:51:25;9.90;99.90
52709;DHT22;38606;52.986;6.980;2024-01-30T10:53:52;10.30;99.90
52709;DHT22;38606;52.986;6.980;2024-01-30T10:56:21;10.40;99.90
52709;DHT22;38606;52.986;6.980;2024-01-30T10:58:51;10.30;99.90
52709;DHT22;38606;52.986;6.980;2024-01-30T11:01:22;10.50;99.90
52709;DHT22;38606;52.986;6.980;2024-01-30T11:03:51;9.70;99.90
52709;DHT22;38606;52.986;6.980;2024-01-30T11:06:18;10.40;99.90
52709;DHT22;38606;52.986;6.980;2024-01-30T11:08:45;10.50;99.90
52709;DHT22;38606;52.986;6.980;2024-01-30T11:11:11;10.40;99.90
52709;DHT22;38606;52.986;6.980;2024-01-30T11:13:37;10.60;99.90
52709;DHT22;38606;52.986;6.980;2024-01-30T11:16:04;10.60;99.90
52709;DHT22;38606;52.986;6.980;2024-01-30T11:18:32;10.60;99.90
52709;DHT22;38606;52.986;6.980;2024-01-30T11:20:59;10.60;99.90
52709;DHT22;38606;52.986;6.980;2024-01-30T11:23:27;11.40;99.90
52709;DHT22;38606;52.986;6.980;2024-01-30T11:25:53;10.20;99.90
52709;DHT22;38606;52.986;6.980;2024-01-30T11:28:21;10.30;99.90
52709;DHT22;38606;52.986;6.980;2024-01-30T11:30:47;10.30;99.90
52709;DHT22;38606;52.986;6.980;2024-01-30T11:33:26;12.40;99.90
52709;DHT22;38606;52.986;6.980;2024-01-30T11:35:52;10.50;99.90
52709;DHT22;38606;52.986;6.980;2024-01-30T11:38:18;9.70;99.90
52709;DHT22;38606;52.986;6.980;2024-01-30T11:40:44;10.70;99.90
52709;DHT22;38606;52.986;6.980;2024-01-30T11:43:11;10.50;99.90
52709;DHT22;38606;52.986;6.980;2024-01-30T11:45:37;10.60;99.90
52709;DHT22;38606;52.986;6.980;2024-01-30T11:48:05;10.50;99.90
52709;DHT22;38606;52.986;6.980;2024-01-30T11:50:34;10.40;99.90
52709;DHT22;38606;52.986;6.980;2024-01-30T11:53:00;10.70;99.90
52709;DHT22;38606;52.986;6.980;2024-01-30T11:55:26;10.50;99.90
52709;DHT22;38606;52.986;6.980;2024-01-30T11:57:59;10.40;99.90
52709;DHT22;38606;52.986;6.980;2024-01-30T12:00:25;10.60;99.90
52709;DHT22;38606;52.986;6.980;2024-01-30T12:02:52;10.70;99.90
52709;DHT22;38606;52.986;6.980;2024-01-30T12:05:21;10.60;99.90
52709;DHT22;38606;52.986;6.980;2024-01-30T12:07:47;10.50;99.90
52709;DHT22;38606;52.986;6.980;2024-01-30T12:10:14;10.70;99.90
52709;DHT22;38606;52.986;6.980;2024-01-30T12:12:41;10.40;99.90
52709;DHT22;38606;52.986;6.980;2024-01-30T12:15:08;10.90;99.90
52709;DHT22;38606;52.986;6.980;2024-01-30T12:17:34;10.70;99.90
52709;DHT22;38606;52.986;6.980;2024-01-30T12:20:08;10.60;99.90
52709;DHT22;38606;52.986;6.980;2024-01-30T12:22:44;10.70;99.90
52709;DHT22;38606;52.986;6.980;2024-01-30T12:27:37;11.70;99.90
52709;DHT22;38606;52.986;6.980;2024-01-30T12:30:10;10.90;99.90
52709;DHT22;38606;52.986;6.980;2024-01-30T12:32:42;11.00;99.90
52709;DHT22;38606;52.986;6.980;2024-01-30T12:35:16;10.80;99.90
52709;DHT22;38606;52.986;6.980;2024-01-30T12:37:46;10.90;99.90
52709;DHT22;38606;52.986;6.980;2024-01-30T12:40:14;10.80;99.90
52709;DHT22;38606;52.986;6.980;2024-01-30T12:42:45;11.10;99.90
52709;DHT22;38606;52.986;6.980;2024-01-30T12:45:14;11.00;99.90
52709;DHT22;38606;52.986;6.980;2024-01-30T12:47:49;10.90;99.90
52709;DHT22;38606;52.986;6.980;2024-01-30T12:50:15;11.10;99.90
52709;DHT22;38606;52.986;6.980;2024-01-30T12:52:43;11.10;99.90
52709;DHT22;38606;52.986;6.980;2024-01-30T12:55:08;11.20;99.90
52709;DHT22;38606;52.986;6.980;2024-01-30T12:57:34;11.10;99.90
52709;DHT22;38606;52.986;6.980;2024-01-30T13:00:00;11.00;99.90
52709;DHT22;38606;52.986;6.980;2024-01-30T13:02:26;11.00;99.90
52709;DHT22;38606;52.986;6.980;2024-01-30T13:04:55;11.20;99.90
52709;DHT22;38606;52.986;6.980;2024-01-30T13:07:21;11.20;99.90
52709;DHT22;38606;52.986;6.980;2024-01-30T13:09:46;11.10;99.90
52709;DHT22;38606;52.986;6.980;2024-01-30T13:12:13;11.20;99.90
52709;DHT22;38606;52.986;6.980;2024-01-30T13:14:38;10.80;99.90
52709;DHT22;38606;52.986;6.980;2024-01-30T13:17:04;10.90;99.90
52709;DHT22;38606;52.986;6.980;2024-01-30T13:19:30;11.10;99.90
52709;DHT22;38606;52.986;6.980;2024-01-30T13:21:56;10.80;99.90
52709;DHT22;38606;52.986;6.980;2024-01-30T13:24:21;10.80;99.90
52709;DHT22;38606;52.986;6.980;2024-01-30T13:26:47;10.80;99.90
52709;DHT22;38606;52.986;6.980;2024-01-30T13:29:14;10.80;99.90
52709;DHT22;38606;52.986;6.980;2024-01-30T13:31:39;10.80;99.90
52709;DHT22;38606;52.986;6.980;2024-01-30T13:34:05;10.90;99.90
52709;DHT22;38606;52.986;6.980;2024-01-30T13:36:34;10.80;99.90
52709;DHT22;38606;52.986;6.980;2024-01-30T13:38:59;10.40;99.90
52709;DHT22;38606;52.986;6.980;2024-01-30T13:41:25;10.50;99.90
52709;DHT22;38606;52.986;6.980;2024-01-30T13:43:51;10.70;99.90
52709;DHT22;38606;52.986;6.980;2024-01-30T13:46:19;10.70;99.90
52709;DHT22;38606;52.986;6.980;2024-01-30T13:48:45;10.70;99.90
52709;DHT22;38606;52.986;6.980;2024-01-30T13:51:11;10.80;99.90
52709;DHT22;38606;52.986;6.980;2024-01-30T13:53:38;10.80;99.90
52709;DHT22;38606;52.986;6.980;2024-01-30T13:56:04;10.70;99.90
52709;DHT22;38606;52.986;6.980;2024-01-30T13:58:31;10.40;99.90
52709;DHT22;38606;52.986;6.980;2024-01-30T14:00:59;10.40;99.90
52709;DHT22;38606;52.986;6.980;2024-01-30T14:03:24;10.50;99.90
52709;DHT22;38606;52.986;6.980;2024-01-30T14:05:50;10.30;99.90
52709;DHT22;38606;52.986;6.980;2024-01-30T14:08:16;10.20;99.90
52709;DHT22;38606;52.986;6.980;2024-01-30T14:10:41;10.30;99.90
52709;DHT22;38606;52.986;6.980;2024-01-30T14:13:07;10.40;99.90
52709;DHT22;38606;52.986;6.980;2024-01-30T14:15:33;10.30;99.90
52709;DHT22;38606;52.986;6.980;2024-01-30T14:17:59;10.10;99.90
52709;DHT22;38606;52.986;6.980;2024-01-30T14:20:25;10.10;99.90
52709;DHT22;38606;52.986;6.980;2024-01-30T14:22:50;10.00;99.90
52709;DHT22;38606;52.986;6.980;2024-01-30T14:25:17;10.10;99.90
52709;DHT22;38606;52.986;6.980;2024-01-30T14:27:42;10.20;99.90
52709;DHT22;38606;52.986;6.980;2024-01-30T14:30:11;10.10;99.90
52709;DHT22;38606;52.986;6.980;2024-01-30T14:32:37;10.30;99.90
52709;DHT22;38606;52.986;6.980;2024-01-30T14:35:04;10.00;99.90
52709;DHT22;38606;52.986;6.980;2024-01-30T14:37:30;10.40;99.90
52709;DHT22;38606;52.986;6.980;2024-01-30T14:39:56;9.90;99.90
52709;DHT22;38606;52.986;6.980;2024-01-30T14:42:22;10.20;99.90
52709;DHT22;38606;52.986;6.980;2024-01-30T14:44:47;9.90;99.90
52709;DHT22;38606;52.986;6.980;2024-01-30T14:47:14;9.80;99.90
52709;DHT22;38606;52.986;6.980;2024-01-30T14:49:40;9.80;99.90
52709;DHT22;38606;52.986;6.980;2024-01-30T14:52:06;10.10;99.90
52709;DHT22;38606;52.986;6.980;2024-01-30T14:54:31;9.90;99.90
52709;DHT22;38606;52.986;6.980;2024-01-30T14:56:57;10.00;99.90
52709;DHT22;38606;52.986;6.980;2024-01-30T14:59:25;9.80;99.90
52709;DHT22;38606;52.986;6.980;2024-01-30T15:01:50;9.90;99.90
52709;DHT22;38606;52.986;6.980;2024-01-30T15:04:16;9.80;99.90
52709;DHT22;38606;52.986;6.980;2024-01-30T15:06:42;9.90;99.90
52709;DHT22;38606;52.986;6.980;2024-01-30T15:09:13;9.80;99.90
52709;DHT22;38606;52.986;6.980;2024-01-30T15:11:44;9.80;99.90
52709;DHT22;38606;52.986;6.980;2024-01-30T15:14:09;9.70;99.90
52709;DHT22;38606;52.986;6.980;2024-01-30T15:16:36;9.80;99.90
52709;DHT22;38606;52.986;6.980;2024-01-30T15:19:02;9.50;99.90
52709;DHT22;38606;52.986;6.980;2024-01-30T15:21:30;9.60;99.90
52709;DHT22;38606;52.986;6.980;2024-01-30T15:23:56;9.70;99.90
52709;DHT22;38606;52.986;6.980;2024-01-30T15:26:22;9.70;99.90
52709;DHT22;38606;52.986;6.980;2024-01-30T15:28:47;9.40;99.90
52709;DHT22;38606;52.986;6.980;2024-01-30T15:31:13;9.50;99.90
52709;DHT22;38606;52.986;6.980;2024-01-30T15:33:39;10.00;99.90
52709;DHT22;38606;52.986;6.980;2024-01-30T15:36:05;9.60;99.90
52709;DHT22;38606;52.986;6.980;2024-01-30T15:38:31;9.30;99.90
52709;DHT22;38606;52.986;6.980;2024-01-30T15:40:57;9.50;99.90